sensor_id;sensor_type;location;lat;lon;timestamp;P1;durP1;ratioP1;P2;durP2;ratioP2
46363;SDS011;32071;49.036;9.344;2022-10-15T00:00:34;1.77;;;1.60;;
46363;SDS011;32071;49.036;9.344;2022-10-15T00:03:00;1.90;;;1.70;;
46363;SDS011;32071;49.036;9.344;2022-10-15T00:05:25;1.37;;;1.27;;
46363;SDS011;32071;49.036;9.344;2022-10-15T00:07:51;2.07;;;1.17;;
46363;SDS011;32071;49.036;9.344;2022-10-15T00:10:18;1.00;;;0.97;;
46363;SDS011;32071;49.036;9.344;2022-10-15T00:12:44;1.40;;;1.30;;
46363;SDS011;32071;49.036;9.344;2022-10-15T00:15:09;2.10;;;1.03;;
46363;SDS011;32071;49.036;9.344;2022-10-15T00:17:36;2.30;;;1.20;;
46363;SDS011;32071;49.036;9.344;2022-10-15T00:20:03;3.10;;;1.30;;
46363;SDS011;32071;49.036;9.344;2022-10-15T00:22:30;1.40;;;1.30;;
46363;SDS011;32071;49.036;9.344;2022-10-15T00:24:55;1.30;;;1.20;;
46363;SDS011;32071;49.036;9.344;2022-10-15T00:27:21;1.33;;;1.10;;
46363;SDS011;32071;49.036;9.344;2022-10-15T00:29:46;1.10;;;1.10;;
46363;SDS011;32071;49.036;9.344;2022-10-15T00:32:12;1.20;;;1.10;;
46363;SDS011;32071;49.036;9.344;2022-10-15T00:34:38;2.47;;;1.40;;
46363;SDS011;32071;49.036;9.344;2022-10-15T00:37:04;1.07;;;0.90;;
46363;SDS011;32071;49.036;9.344;2022-10-15T00:39:29;1.07;;;1.00;;
46363;SDS011;32071;49.036;9.344;2022-10-15T00:41:55;1.17;;;1.07;;
46363;SDS011;32071;49.036;9.344;2022-10-15T00:47:29;1.07;;;1.03;;
46363;SDS011;32071;49.036;9.344;2022-10-15T00:58:07;0.90;;;0.90;;
46363;SDS011;32071;49.036;9.344;2022-10-15T01:00:39;0.80;;;0.80;;
46363;SDS011;32071;49.036;9.344;2022-10-15T01:03:05;1.13;;;1.00;;
46363;SDS011;32071;49.036;9.344;2022-10-15T01:05:31;1.10;;;1.00;;
46363;SDS011;32071;49.036;9.344;2022-10-15T01:07:58;1.03;;;0.87;;
46363;SDS011;32071;49.036;9.344;2022-10-15T01:10:25;1.10;;;0.93;;
46363;SDS011;32071;49.036;9.344;2022-10-15T01:16:10;1.70;;;1.63;;
46363;SDS011;32071;49.036;9.344;2022-10-15T01:18:49;0.90;;;0.90;;
46363;SDS011;32071;49.036;9.344;2022-10-15T01:21:25;0.77;;;0.70;;
46363;SDS011;32071;49.036;9.344;2022-10-15T01:24:35;1.23;;;1.00;;
46363;SDS011;32071;49.036;9.344;2022-10-15T01:27:26;0.73;;;0.73;;
46363;SDS011;32071;49.036;9.344;2022-10-15T01:41:43;0.60;;;0.60;;
46363;SDS011;32071;49.036;9.344;2022-10-15T01:49:19;1.07;;;0.80;;
46363;SDS011;32071;49.036;9.344;2022-10-15T01:51:48;1.23;;;0.57;;
46363;SDS011;32071;49.036;9.344;2022-10-15T01:54:17;0.50;;;0.50;;
46363;SDS011;32071;49.036;9.344;2022-10-15T01:56:45;0.70;;;0.60;;
46363;SDS011;32071;49.036;9.344;2022-10-15T01:59:14;0.60;;;0.60;;
46363;SDS011;32071;49.036;9.344;2022-10-15T02:01:45;0.67;;;0.67;;
46363;SDS011;32071;49.036;9.344;2022-10-15T02:04:18;0.60;;;0.50;;
46363;SDS011;32071;49.036;9.344;2022-10-15T02:06:46;1.23;;;0.60;;
46363;SDS011;32071;49.036;9.344;2022-10-15T02:17:57;0.70;;;0.60;;
46363;SDS011;32071;49.036;9.344;2022-10-15T02:20:39;1.43;;;0.60;;
46363;SDS011;32071;49.036;9.344;2022-10-15T02:26:09;0.50;;;0.50;;
46363;SDS011;32071;49.036;9.344;2022-10-15T02:28:36;0.87;;;0.50;;
46363;SDS011;32071;49.036;9.344;2022-10-15T02:31:05;0.50;;;0.50;;
46363;SDS011;32071;49.036;9.344;2022-10-15T02:33:33;0.93;;;0.70;;
46363;SDS011;32071;49.036;9.344;2022-10-15T02:36:01;0.73;;;0.60;;
46363;SDS011;32071;49.036;9.344;2022-10-15T02:38:26;0.70;;;0.63;;
46363;SDS011;32071;49.036;9.344;2022-10-15T02:40:56;0.60;;;0.60;;
46363;SDS011;32071;49.036;9.344;2022-10-15T02:43:22;0.60;;;0.60;;
46363;SDS011;32071;49.036;9.344;2022-10-15T02:45:48;0.50;;;0.50;;
46363;SDS011;32071;49.036;9.344;2022-10-15T02:48:14;0.90;;;0.83;;
46363;SDS011;32071;49.036;9.344;2022-10-15T02:50:40;0.60;;;0.60;;
46363;SDS011;32071;49.036;9.344;2022-10-15T02:53:05;0.50;;;0.50;;
46363;SDS011;32071;49.036;9.344;2022-10-15T02:55:31;0.53;;;0.53;;
46363;SDS011;32071;49.036;9.344;2022-10-15T02:57:57;0.67;;;0.67;;
46363;SDS011;32071;49.036;9.344;2022-10-15T03:00:23;0.83;;;0.83;;
46363;SDS011;32071;49.036;9.344;2022-10-15T03:02:49;0.80;;;0.80;;
46363;SDS011;32071;49.036;9.344;2022-10-15T03:05:14;4.43;;;0.97;;
46363;SDS011;32071;49.036;9.344;2022-10-15T03:07:40;0.80;;;0.80;;
46363;SDS011;32071;49.036;9.344;2022-10-15T03:10:05;1.83;;;1.00;;
46363;SDS011;32071;49.036;9.344;2022-10-15T03:12:32;1.00;;;1.00;;
46363;SDS011;32071;49.036;9.344;2022-10-15T03:14:57;1.63;;;0.70;;
46363;SDS011;32071;49.036;9.344;2022-10-15T03:17:23;0.70;;;0.70;;
46363;SDS011;32071;49.036;9.344;2022-10-15T03:19:49;1.40;;;1.07;;
46363;SDS011;32071;49.036;9.344;2022-10-15T03:22:14;0.70;;;0.70;;
46363;SDS011;32071;49.036;9.344;2022-10-15T03:24:40;1.20;;;1.10;;
46363;SDS011;32071;49.036;9.344;2022-10-15T03:27:06;1.10;;;1.10;;
46363;SDS011;32071;49.036;9.344;2022-10-15T03:29:31;0.73;;;0.73;;
46363;SDS011;32071;49.036;9.344;2022-10-15T03:31:57;0.87;;;0.87;;
46363;SDS011;32071;49.036;9.344;2022-10-15T03:34:23;0.93;;;0.90;;
46363;SDS011;32071;49.036;9.344;2022-10-15T03:36:48;1.97;;;0.80;;
46363;SDS011;32071;49.036;9.344;2022-10-15T03:39:14;1.10;;;1.00;;
46363;SDS011;32071;49.036;9.344;2022-10-15T03:41:40;1.10;;;1.00;;
46363;SDS011;32071;49.036;9.344;2022-10-15T03:44:06;1.00;;;0.97;;
46363;SDS011;32071;49.036;9.344;2022-10-15T03:46:32;1.00;;;0.90;;
46363;SDS011;32071;49.036;9.344;2022-10-15T03:48:58;0.93;;;0.90;;
46363;SDS011;32071;49.036;9.344;2022-10-15T03:51:24;1.00;;;1.00;;
46363;SDS011;32071;49.036;9.344;2022-10-15T03:53:50;1.00;;;1.00;;
46363;SDS011;32071;49.036;9.344;2022-10-15T03:56:15;1.30;;;0.83;;
46363;SDS011;32071;49.036;9.344;2022-10-15T03:58:41;1.00;;;0.90;;
46363;SDS011;32071;49.036;9.344;2022-10-15T04:01:08;1.37;;;1.00;;
46363;SDS011;32071;49.036;9.344;2022-10-15T04:03:34;1.00;;;0.90;;
46363;SDS011;32071;49.036;9.344;2022-10-15T04:06:00;1.20;;;1.00;;
46363;SDS011;32071;49.036;9.344;2022-10-15T04:08:26;0.90;;;0.90;;
46363;SDS011;32071;49.036;9.344;2022-10-15T04:10:51;1.07;;;1.03;;
46363;SDS011;32071;49.036;9.344;2022-10-15T04:13:18;0.80;;;0.80;;
46363;SDS011;32071;49.036;9.344;2022-10-15T04:15:43;0.93;;;0.90;;
46363;SDS011;32071;49.036;9.344;2022-10-15T04:18:09;1.30;;;1.20;;
46363;SDS011;32071;49.036;9.344;2022-10-15T04:20:35;1.23;;;1.23;;
46363;SDS011;32071;49.036;9.344;2022-10-15T04:23:01;1.10;;;1.10;;
46363;SDS011;32071;49.036;9.344;2022-10-15T04:25:27;1.00;;;0.93;;
46363;SDS011;32071;49.036;9.344;2022-10-15T04:27:52;0.60;;;0.60;;
46363;SDS011;32071;49.036;9.344;2022-10-15T04:30:18;1.80;;;0.70;;
46363;SDS011;32071;49.036;9.344;2022-10-15T04:32:44;1.00;;;0.77;;
46363;SDS011;32071;49.036;9.344;2022-10-15T04:35:09;1.07;;;0.73;;
46363;SDS011;32071;49.036;9.344;2022-10-15T04:37:35;1.70;;;1.30;;
46363;SDS011;32071;49.036;9.344;2022-10-15T04:40:01;0.80;;;0.80;;
46363;SDS011;32071;49.036;9.344;2022-10-15T04:42:28;0.70;;;0.70;;
46363;SDS011;32071;49.036;9.344;2022-10-15T04:44:54;0.80;;;0.80;;
46363;SDS011;32071;49.036;9.344;2022-10-15T04:47:20;0.60;;;0.60;;
46363;SDS011;32071;49.036;9.344;2022-10-15T04:49:46;0.97;;;0.90;;
46363;SDS011;32071;49.036;9.344;2022-10-15T04:52:12;3.13;;;0.80;;
46363;SDS011;32071;49.036;9.344;2022-10-15T04:54:37;0.70;;;0.70;;
46363;SDS011;32071;49.036;9.344;2022-10-15T04:57:03;0.83;;;0.83;;
46363;SDS011;32071;49.036;9.344;2022-10-15T04:59:29;0.60;;;0.60;;
46363;SDS011;32071;49.036;9.344;2022-10-15T05:01:55;0.70;;;0.70;;
46363;SDS011;32071;49.036;9.344;2022-10-15T05:04:21;0.60;;;0.53;;
46363;SDS011;32071;49.036;9.344;2022-10-15T05:06:46;1.20;;;0.80;;
46363;SDS011;32071;49.036;9.344;2022-10-15T05:09:12;0.80;;;0.80;;
46363;SDS011;32071;49.036;9.344;2022-10-15T05:11:37;0.87;;;0.87;;
46363;SDS011;32071;49.036;9.344;2022-10-15T05:14:03;0.87;;;0.87;;
46363;SDS011;32071;49.036;9.344;2022-10-15T05:16:29;0.97;;;0.70;;
46363;SDS011;32071;49.036;9.344;2022-10-15T05:18:59;1.03;;;0.83;;
46363;SDS011;32071;49.036;9.344;2022-10-15T05:21:27;0.83;;;0.83;;
46363;SDS011;32071;49.036;9.344;2022-10-15T05:23:53;0.50;;;0.50;;
46363;SDS011;32071;49.036;9.344;2022-10-15T05:26:20;1.20;;;0.80;;
46363;SDS011;32071;49.036;9.344;2022-10-15T05:28:47;1.17;;;1.07;;
46363;SDS011;32071;49.036;9.344;2022-10-15T05:31:17;0.80;;;0.80;;
46363;SDS011;32071;49.036;9.344;2022-10-15T05:33:48;1.97;;;1.03;;
46363;SDS011;32071;49.036;9.344;2022-10-15T05:36:16;1.10;;;1.00;;
46363;SDS011;32071;49.036;9.344;2022-10-15T05:38:42;0.73;;;0.73;;
46363;SDS011;32071;49.036;9.344;2022-10-15T05:41:08;0.70;;;0.70;;
46363;SDS011;32071;49.036;9.344;2022-10-15T05:43:34;0.80;;;0.80;;
46363;SDS011;32071;49.036;9.344;2022-10-15T05:46:00;0.80;;;0.80;;
46363;SDS011;32071;49.036;9.344;2022-10-15T05:48:25;1.13;;;1.03;;
46363;SDS011;32071;49.036;9.344;2022-10-15T05:50:51;0.60;;;0.60;;
46363;SDS011;32071;49.036;9.344;2022-10-15T05:53:17;0.87;;;0.70;;
46363;SDS011;32071;49.036;9.344;2022-10-15T05:55:42;0.70;;;0.70;;
46363;SDS011;32071;49.036;9.344;2022-10-15T05:58:08;1.90;;;0.90;;
46363;SDS011;32071;49.036;9.344;2022-10-15T06:00:34;2.60;;;1.20;;
46363;SDS011;32071;49.036;9.344;2022-10-15T06:03:00;1.80;;;1.40;;
46363;SDS011;32071;49.036;9.344;2022-10-15T06:05:25;2.10;;;1.30;;
46363;SDS011;32071;49.036;9.344;2022-10-15T06:07:51;1.43;;;1.07;;
46363;SDS011;32071;49.036;9.344;2022-10-15T06:10:17;1.10;;;1.00;;
46363;SDS011;32071;49.036;9.344;2022-10-15T06:12:47;1.20;;;1.17;;
46363;SDS011;32071;49.036;9.344;2022-10-15T06:15:14;0.90;;;0.90;;
46363;SDS011;32071;49.036;9.344;2022-10-15T06:17:39;1.20;;;1.10;;
46363;SDS011;32071;49.036;9.344;2022-10-15T06:20:05;0.80;;;0.80;;
46363;SDS011;32071;49.036;9.344;2022-10-15T06:22:31;1.27;;;1.17;;
46363;SDS011;32071;49.036;9.344;2022-10-15T06:24:56;1.00;;;1.00;;
46363;SDS011;32071;49.036;9.344;2022-10-15T06:27:22;0.93;;;0.77;;
46363;SDS011;32071;49.036;9.344;2022-10-15T06:29:47;1.30;;;1.20;;
46363;SDS011;32071;49.036;9.344;2022-10-15T06:32:13;0.97;;;0.97;;
46363;SDS011;32071;49.036;9.344;2022-10-15T06:34:39;0.93;;;0.93;;
46363;SDS011;32071;49.036;9.344;2022-10-15T06:37:04;1.87;;;0.93;;
46363;SDS011;32071;49.036;9.344;2022-10-15T06:39:30;1.00;;;1.00;;
46363;SDS011;32071;49.036;9.344;2022-10-15T06:41:55;1.30;;;1.20;;
46363;SDS011;32071;49.036;9.344;2022-10-15T06:44:21;1.17;;;0.90;;
46363;SDS011;32071;49.036;9.344;2022-10-15T06:46:47;1.37;;;0.73;;
46363;SDS011;32071;49.036;9.344;2022-10-15T06:49:12;1.27;;;1.07;;
46363;SDS011;32071;49.036;9.344;2022-10-15T06:51:38;0.80;;;0.80;;
46363;SDS011;32071;49.036;9.344;2022-10-15T06:54:03;0.80;;;0.80;;
46363;SDS011;32071;49.036;9.344;2022-10-15T06:56:29;0.70;;;0.70;;
46363;SDS011;32071;49.036;9.344;2022-10-15T06:58:54;0.90;;;0.80;;
46363;SDS011;32071;49.036;9.344;2022-10-15T07:01:20;1.03;;;1.03;;
46363;SDS011;32071;49.036;9.344;2022-10-15T07:03:49;1.00;;;1.00;;
46363;SDS011;32071;49.036;9.344;2022-10-15T07:06:15;1.70;;;1.20;;
46363;SDS011;32071;49.036;9.344;2022-10-15T07:08:41;1.40;;;0.90;;
46363;SDS011;32071;49.036;9.344;2022-10-15T07:11:07;1.87;;;1.50;;
46363;SDS011;32071;49.036;9.344;2022-10-15T07:13:33;3.23;;;1.00;;
46363;SDS011;32071;49.036;9.344;2022-10-15T07:16:06;1.10;;;1.10;;
46363;SDS011;32071;49.036;9.344;2022-10-15T07:18:33;1.30;;;1.20;;
46363;SDS011;32071;49.036;9.344;2022-10-15T07:21:00;1.33;;;1.23;;
46363;SDS011;32071;49.036;9.344;2022-10-15T07:23:26;1.30;;;1.20;;
46363;SDS011;32071;49.036;9.344;2022-10-15T07:25:52;1.30;;;1.20;;
46363;SDS011;32071;49.036;9.344;2022-10-15T07:28:18;1.20;;;1.20;;
46363;SDS011;32071;49.036;9.344;2022-10-15T07:30:43;1.50;;;1.30;;
46363;SDS011;32071;49.036;9.344;2022-10-15T07:33:09;1.00;;;1.00;;
46363;SDS011;32071;49.036;9.344;2022-10-15T07:35:35;1.73;;;1.40;;
46363;SDS011;32071;49.036;9.344;2022-10-15T07:38:02;1.63;;;1.53;;
46363;SDS011;32071;49.036;9.344;2022-10-15T07:40:28;1.30;;;1.20;;
46363;SDS011;32071;49.036;9.344;2022-10-15T07:42:54;2.77;;;1.50;;
46363;SDS011;32071;49.036;9.344;2022-10-15T07:45:21;1.47;;;1.37;;
46363;SDS011;32071;49.036;9.344;2022-10-15T07:47:47;2.07;;;1.97;;
46363;SDS011;32071;49.036;9.344;2022-10-15T07:50:13;1.63;;;1.40;;
46363;SDS011;32071;49.036;9.344;2022-10-15T07:52:39;2.90;;;2.53;;
46363;SDS011;32071;49.036;9.344;2022-10-15T07:55:04;2.73;;;2.27;;
46363;SDS011;32071;49.036;9.344;2022-10-15T07:57:30;3.60;;;2.37;;
46363;SDS011;32071;49.036;9.344;2022-10-15T07:59:56;2.40;;;2.20;;
46363;SDS011;32071;49.036;9.344;2022-10-15T08:02:21;3.13;;;2.50;;
46363;SDS011;32071;49.036;9.344;2022-10-15T08:04:47;3.67;;;2.53;;
46363;SDS011;32071;49.036;9.344;2022-10-15T08:07:13;3.33;;;2.77;;
46363;SDS011;32071;49.036;9.344;2022-10-15T08:09:38;2.90;;;2.70;;
46363;SDS011;32071;49.036;9.344;2022-10-15T08:12:04;4.73;;;2.53;;
46363;SDS011;32071;49.036;9.344;2022-10-15T08:14:31;2.40;;;2.13;;
46363;SDS011;32071;49.036;9.344;2022-10-15T08:16:57;4.10;;;2.50;;
46363;SDS011;32071;49.036;9.344;2022-10-15T08:19:23;2.43;;;2.23;;
46363;SDS011;32071;49.036;9.344;2022-10-15T08:21:48;1.43;;;1.33;;
46363;SDS011;32071;49.036;9.344;2022-10-15T08:24:14;1.37;;;1.27;;
46363;SDS011;32071;49.036;9.344;2022-10-15T08:26:40;1.63;;;1.53;;
46363;SDS011;32071;49.036;9.344;2022-10-15T08:29:05;2.20;;;2.00;;
46363;SDS011;32071;49.036;9.344;2022-10-15T08:31:31;1.83;;;1.50;;
46363;SDS011;32071;49.036;9.344;2022-10-15T08:34:00;1.90;;;1.80;;
46363;SDS011;32071;49.036;9.344;2022-10-15T08:36:26;2.50;;;2.17;;
46363;SDS011;32071;49.036;9.344;2022-10-15T08:38:52;1.80;;;1.70;;
46363;SDS011;32071;49.036;9.344;2022-10-15T08:44:08;2.30;;;2.00;;
46363;SDS011;32071;49.036;9.344;2022-10-15T08:46:46;2.07;;;1.90;;
46363;SDS011;32071;49.036;9.344;2022-10-15T08:49:20;2.10;;;1.60;;
46363;SDS011;32071;49.036;9.344;2022-10-15T08:52:23;2.77;;;1.90;;
46363;SDS011;32071;49.036;9.344;2022-10-15T08:54:58;1.97;;;1.80;;
46363;SDS011;32071;49.036;9.344;2022-10-15T08:57:39;2.13;;;2.03;;
46363;SDS011;32071;49.036;9.344;2022-10-15T09:00:16;3.20;;;2.17;;
46363;SDS011;32071;49.036;9.344;2022-10-15T09:02:50;1.77;;;1.67;;
46363;SDS011;32071;49.036;9.344;2022-10-15T09:05:43;2.47;;;1.70;;
46363;SDS011;32071;49.036;9.344;2022-10-15T09:08:25;1.77;;;1.67;;
46363;SDS011;32071;49.036;9.344;2022-10-15T09:13:43;1.93;;;1.80;;
46363;SDS011;32071;49.036;9.344;2022-10-15T09:18:40;5.77;;;1.60;;
46363;SDS011;32071;49.036;9.344;2022-10-15T09:21:08;3.10;;;1.87;;
46363;SDS011;32071;49.036;9.344;2022-10-15T09:23:37;1.87;;;1.47;;
46363;SDS011;32071;49.036;9.344;2022-10-15T09:31:44;1.30;;;1.20;;
46363;SDS011;32071;49.036;9.344;2022-10-15T09:34:21;1.00;;;1.00;;
46363;SDS011;32071;49.036;9.344;2022-10-15T09:36:55;1.50;;;1.00;;
46363;SDS011;32071;49.036;9.344;2022-10-15T09:44:36;1.20;;;1.10;;
46363;SDS011;32071;49.036;9.344;2022-10-15T09:47:16;2.10;;;1.00;;
46363;SDS011;32071;49.036;9.344;2022-10-15T09:49:47;3.57;;;1.37;;
46363;SDS011;32071;49.036;9.344;2022-10-15T09:52:19;2.83;;;0.97;;
46363;SDS011;32071;49.036;9.344;2022-10-15T09:58:10;1.03;;;0.80;;
46363;SDS011;32071;49.036;9.344;2022-10-15T10:03:15;2.70;;;1.10;;
46363;SDS011;32071;49.036;9.344;2022-10-15T10:05:40;1.33;;;1.23;;
46363;SDS011;32071;49.036;9.344;2022-10-15T10:08:17;1.17;;;1.13;;
46363;SDS011;32071;49.036;9.344;2022-10-15T10:10:55;1.53;;;1.27;;
46363;SDS011;32071;49.036;9.344;2022-10-15T10:13:32;1.50;;;1.40;;
46363;SDS011;32071;49.036;9.344;2022-10-15T10:16:04;1.80;;;1.20;;
46363;SDS011;32071;49.036;9.344;2022-10-15T10:18:32;1.30;;;1.20;;
46363;SDS011;32071;49.036;9.344;2022-10-15T10:21:02;2.43;;;1.90;;
46363;SDS011;32071;49.036;9.344;2022-10-15T10:23:31;4.27;;;2.20;;
46363;SDS011;32071;49.036;9.344;2022-10-15T10:26:08;2.20;;;1.77;;
46363;SDS011;32071;49.036;9.344;2022-10-15T10:28:51;2.60;;;2.40;;
46363;SDS011;32071;49.036;9.344;2022-10-15T10:31:26;1.30;;;1.20;;
46363;SDS011;32071;49.036;9.344;2022-10-15T10:33:53;1.00;;;1.00;;
46363;SDS011;32071;49.036;9.344;2022-10-15T10:44:30;0.70;;;0.70;;
46363;SDS011;32071;49.036;9.344;2022-10-15T10:49:34;1.87;;;1.20;;
46363;SDS011;32071;49.036;9.344;2022-10-15T10:52:03;1.13;;;1.03;;
46363;SDS011;32071;49.036;9.344;2022-10-15T10:54:29;1.40;;;1.30;;
46363;SDS011;32071;49.036;9.344;2022-10-15T10:56:58;2.23;;;1.13;;
46363;SDS011;32071;49.036;9.344;2022-10-15T11:01:56;1.30;;;0.80;;
46363;SDS011;32071;49.036;9.344;2022-10-15T11:06:57;0.90;;;0.90;;
46363;SDS011;32071;49.036;9.344;2022-10-15T11:15:12;1.03;;;0.93;;
46363;SDS011;32071;49.036;9.344;2022-10-15T11:37:55;1.50;;;1.40;;
46363;SDS011;32071;49.036;9.344;2022-10-15T11:46:07;1.17;;;1.00;;
46363;SDS011;32071;49.036;9.344;2022-10-15T11:48:53;1.60;;;1.50;;
46363;SDS011;32071;49.036;9.344;2022-10-15T11:51:28;1.70;;;1.60;;
46363;SDS011;32071;49.036;9.344;2022-10-15T11:56:49;1.37;;;1.27;;
46363;SDS011;32071;49.036;9.344;2022-10-15T11:59:20;1.20;;;1.10;;
46363;SDS011;32071;49.036;9.344;2022-10-15T12:01:57;1.73;;;1.63;;
46363;SDS011;32071;49.036;9.344;2022-10-15T12:04:51;5.83;;;1.07;;
46363;SDS011;32071;49.036;9.344;2022-10-15T12:07:34;4.67;;;1.30;;
46363;SDS011;32071;49.036;9.344;2022-10-15T12:10:08;1.07;;;1.00;;
46363;SDS011;32071;49.036;9.344;2022-10-15T12:16:05;1.10;;;1.00;;
46363;SDS011;32071;49.036;9.344;2022-10-15T12:18:48;2.20;;;1.10;;
46363;SDS011;32071;49.036;9.344;2022-10-15T12:24:01;1.13;;;1.07;;
46363;SDS011;32071;49.036;9.344;2022-10-15T12:26:29;1.67;;;1.10;;
46363;SDS011;32071;49.036;9.344;2022-10-15T12:28:56;1.17;;;1.07;;
46363;SDS011;32071;49.036;9.344;2022-10-15T12:31:24;1.37;;;1.17;;
46363;SDS011;32071;49.036;9.344;2022-10-15T12:34:06;1.50;;;1.40;;
46363;SDS011;32071;49.036;9.344;2022-10-15T12:37:04;2.10;;;1.53;;
46363;SDS011;32071;49.036;9.344;2022-10-15T12:39:39;1.50;;;1.40;;
46363;SDS011;32071;49.036;9.344;2022-10-15T12:42:25;1.30;;;1.20;;
46363;SDS011;32071;49.036;9.344;2022-10-15T12:44:53;1.40;;;1.30;;
46363;SDS011;32071;49.036;9.344;2022-10-15T12:47:44;4.10;;;1.50;;
46363;SDS011;32071;49.036;9.344;2022-10-15T12:50:19;1.30;;;1.20;;
46363;SDS011;32071;49.036;9.344;2022-10-15T12:53:30;3.10;;;1.57;;
46363;SDS011;32071;49.036;9.344;2022-10-15T12:56:12;2.60;;;1.40;;
46363;SDS011;32071;49.036;9.344;2022-10-15T13:08:45;1.40;;;1.30;;
46363;SDS011;32071;49.036;9.344;2022-10-15T13:11:21;1.30;;;1.20;;
46363;SDS011;32071;49.036;9.344;2022-10-15T13:13:49;1.20;;;0.90;;
46363;SDS011;32071;49.036;9.344;2022-10-15T13:16:16;1.50;;;1.40;;
46363;SDS011;32071;49.036;9.344;2022-10-15T13:18:46;2.17;;;1.30;;
46363;SDS011;32071;49.036;9.344;2022-10-15T13:21:14;1.93;;;1.70;;
46363;SDS011;32071;49.036;9.344;2022-10-15T13:23:43;1.90;;;1.50;;
46363;SDS011;32071;49.036;9.344;2022-10-15T13:26:12;1.90;;;1.80;;
46363;SDS011;32071;49.036;9.344;2022-10-15T13:28:38;1.40;;;1.30;;
46363;SDS011;32071;49.036;9.344;2022-10-15T13:31:15;1.40;;;1.30;;
46363;SDS011;32071;49.036;9.344;2022-10-15T13:33:57;3.63;;;1.20;;
46363;SDS011;32071;49.036;9.344;2022-10-15T13:36:30;1.60;;;1.50;;
46363;SDS011;32071;49.036;9.344;2022-10-15T13:39:07;1.60;;;1.50;;
46363;SDS011;32071;49.036;9.344;2022-10-15T13:44:54;1.87;;;1.47;;
46363;SDS011;32071;49.036;9.344;2022-10-15T13:47:30;1.77;;;1.67;;
46363;SDS011;32071;49.036;9.344;2022-10-15T13:53:11;1.60;;;1.50;;
46363;SDS011;32071;49.036;9.344;2022-10-15T13:55:46;1.53;;;1.43;;
46363;SDS011;32071;49.036;9.344;2022-10-15T13:58:16;0.90;;;0.90;;
46363;SDS011;32071;49.036;9.344;2022-10-15T14:00:49;1.37;;;1.27;;
46363;SDS011;32071;49.036;9.344;2022-10-15T14:03:20;4.40;;;1.37;;
46363;SDS011;32071;49.036;9.344;2022-10-15T14:05:56;1.47;;;1.37;;
46363;SDS011;32071;49.036;9.344;2022-10-15T14:08:32;3.37;;;2.60;;
46363;SDS011;32071;49.036;9.344;2022-10-15T14:10:59;2.03;;;1.80;;
46363;SDS011;32071;49.036;9.344;2022-10-15T14:13:25;5.23;;;1.70;;
46363;SDS011;32071;49.036;9.344;2022-10-15T14:18:43;1.90;;;1.50;;
46363;SDS011;32071;49.036;9.344;2022-10-15T14:21:12;1.17;;;1.17;;
46363;SDS011;32071;49.036;9.344;2022-10-15T14:23:40;1.10;;;1.00;;
46363;SDS011;32071;49.036;9.344;2022-10-15T14:26:08;2.30;;;1.23;;
46363;SDS011;32071;49.036;9.344;2022-10-15T14:28:35;3.03;;;1.23;;
46363;SDS011;32071;49.036;9.344;2022-10-15T14:31:02;2.03;;;1.30;;
46363;SDS011;32071;49.036;9.344;2022-10-15T14:38:43;2.03;;;1.83;;
46363;SDS011;32071;49.036;9.344;2022-10-15T14:41:42;3.70;;;2.80;;
46363;SDS011;32071;49.036;9.344;2022-10-15T14:44:05;3.40;;;1.67;;
46363;SDS011;32071;49.036;9.344;2022-10-15T14:46:52;1.90;;;1.70;;
46363;SDS011;32071;49.036;9.344;2022-10-15T14:49:29;2.07;;;1.87;;
46363;SDS011;32071;49.036;9.344;2022-10-15T14:52:03;1.40;;;1.30;;
46363;SDS011;32071;49.036;9.344;2022-10-15T14:54:33;1.30;;;1.20;;
46363;SDS011;32071;49.036;9.344;2022-10-15T14:57:08;3.00;;;1.63;;
46363;SDS011;32071;49.036;9.344;2022-10-15T14:59:44;3.33;;;1.47;;
46363;SDS011;32071;49.036;9.344;2022-10-15T15:02:12;1.93;;;1.60;;
46363;SDS011;32071;49.036;9.344;2022-10-15T15:04:41;1.80;;;1.70;;
46363;SDS011;32071;49.036;9.344;2022-10-15T15:07:11;1.97;;;1.83;;
46363;SDS011;32071;49.036;9.344;2022-10-15T15:09:39;1.80;;;1.67;;
46363;SDS011;32071;49.036;9.344;2022-10-15T15:12:06;2.00;;;1.90;;
46363;SDS011;32071;49.036;9.344;2022-10-15T15:14:45;1.83;;;1.73;;
46363;SDS011;32071;49.036;9.344;2022-10-15T15:17:12;2.20;;;2.00;;
46363;SDS011;32071;49.036;9.344;2022-10-15T15:19:40;2.00;;;1.80;;
46363;SDS011;32071;49.036;9.344;2022-10-15T15:22:07;2.13;;;1.70;;
46363;SDS011;32071;49.036;9.344;2022-10-15T15:24:35;2.00;;;1.80;;
46363;SDS011;32071;49.036;9.344;2022-10-15T15:27:01;1.83;;;1.73;;
46363;SDS011;32071;49.036;9.344;2022-10-15T15:29:27;5.50;;;2.80;;
46363;SDS011;32071;49.036;9.344;2022-10-15T15:31:53;2.40;;;2.20;;
46363;SDS011;32071;49.036;9.344;2022-10-15T15:34:18;2.47;;;2.27;;
46363;SDS011;32071;49.036;9.344;2022-10-15T15:36:44;2.80;;;2.50;;
46363;SDS011;32071;49.036;9.344;2022-10-15T15:39:09;4.10;;;2.33;;
46363;SDS011;32071;49.036;9.344;2022-10-15T15:41:35;3.43;;;2.10;;
46363;SDS011;32071;49.036;9.344;2022-10-15T15:44:00;2.07;;;1.87;;
46363;SDS011;32071;49.036;9.344;2022-10-15T15:46:28;2.90;;;2.23;;
46363;SDS011;32071;49.036;9.344;2022-10-15T15:48:54;1.93;;;1.60;;
46363;SDS011;32071;49.036;9.344;2022-10-15T15:51:25;2.37;;;2.07;;
46363;SDS011;32071;49.036;9.344;2022-10-15T15:53:56;4.37;;;1.80;;
46363;SDS011;32071;49.036;9.344;2022-10-15T15:56:22;3.80;;;2.10;;
46363;SDS011;32071;49.036;9.344;2022-10-15T15:58:48;1.97;;;1.83;;
46363;SDS011;32071;49.036;9.344;2022-10-15T16:01:15;1.90;;;1.80;;
46363;SDS011;32071;49.036;9.344;2022-10-15T16:03:41;1.80;;;1.53;;
46363;SDS011;32071;49.036;9.344;2022-10-15T16:06:07;2.00;;;1.67;;
46363;SDS011;32071;49.036;9.344;2022-10-15T16:08:33;2.30;;;1.80;;
46363;SDS011;32071;49.036;9.344;2022-10-15T16:11:01;1.80;;;1.30;;
46363;SDS011;32071;49.036;9.344;2022-10-15T16:13:28;4.00;;;1.80;;
46363;SDS011;32071;49.036;9.344;2022-10-15T16:15:54;13.43;;;1.40;;
46363;SDS011;32071;49.036;9.344;2022-10-15T16:18:19;3.77;;;1.90;;
46363;SDS011;32071;49.036;9.344;2022-10-15T16:20:45;1.50;;;1.40;;
46363;SDS011;32071;49.036;9.344;2022-10-15T16:23:11;2.00;;;1.80;;
46363;SDS011;32071;49.036;9.344;2022-10-15T16:25:37;3.40;;;2.53;;
46363;SDS011;32071;49.036;9.344;2022-10-15T16:28:02;2.33;;;2.07;;
46363;SDS011;32071;49.036;9.344;2022-10-15T16:30:28;2.20;;;2.00;;
46363;SDS011;32071;49.036;9.344;2022-10-15T16:32:54;4.60;;;2.63;;
46363;SDS011;32071;49.036;9.344;2022-10-15T16:35:19;2.47;;;2.03;;
46363;SDS011;32071;49.036;9.344;2022-10-15T16:37:45;2.90;;;1.60;;
46363;SDS011;32071;49.036;9.344;2022-10-15T16:40:11;4.10;;;1.60;;
46363;SDS011;32071;49.036;9.344;2022-10-15T16:42:37;2.37;;;1.57;;
46363;SDS011;32071;49.036;9.344;2022-10-15T16:45:03;3.13;;;1.47;;
46363;SDS011;32071;49.036;9.344;2022-10-15T16:47:29;2.37;;;1.90;;
46363;SDS011;32071;49.036;9.344;2022-10-15T16:49:55;3.47;;;1.53;;
46363;SDS011;32071;49.036;9.344;2022-10-15T16:52:20;1.80;;;1.60;;
46363;SDS011;32071;49.036;9.344;2022-10-15T16:54:46;2.43;;;1.70;;
46363;SDS011;32071;49.036;9.344;2022-10-15T16:57:12;2.80;;;1.77;;
46363;SDS011;32071;49.036;9.344;2022-10-15T16:59:37;1.50;;;1.40;;
46363;SDS011;32071;49.036;9.344;2022-10-15T17:02:03;2.87;;;1.43;;
46363;SDS011;32071;49.036;9.344;2022-10-15T17:04:28;7.27;;;1.70;;
46363;SDS011;32071;49.036;9.344;2022-10-15T17:06:54;3.57;;;2.20;;
46363;SDS011;32071;49.036;9.344;2022-10-15T17:09:20;7.20;;;2.13;;
46363;SDS011;32071;49.036;9.344;2022-10-15T17:11:47;2.50;;;2.30;;
46363;SDS011;32071;49.036;9.344;2022-10-15T17:14:13;2.93;;;2.20;;
46363;SDS011;32071;49.036;9.344;2022-10-15T17:16:44;2.00;;;1.60;;
46363;SDS011;32071;49.036;9.344;2022-10-15T17:19:12;9.03;;;1.90;;
46363;SDS011;32071;49.036;9.344;2022-10-15T17:21:40;3.93;;;2.10;;
46363;SDS011;32071;49.036;9.344;2022-10-15T17:24:07;5.20;;;2.30;;
46363;SDS011;32071;49.036;9.344;2022-10-15T17:26:35;2.60;;;1.90;;